Meath Environmental Platform

Observations for Trim Patrick St

Time AQI Temp °C Hum % Pres Pa CO μg/m³ H₂S μg/m³ NO μg/m³ NO₂ μg/m³ O₃ μg/m³ SO₂ μg/m³ PM1 μg/m³ PM2.5 μg/m³ PM10 μg/m³
Sunday 2 August 2026
10:17 2 23.3 51 69,432 0 0 1.83 10.63 63.17 4.71 5.43 10.93 12.03
10:15 2 23.2 51 69,422 0 0 1.86 9.34 64.32 3.38 2.86 7.1 7.81
10:14 2 23.2 52 69,424 0 0 1.96 7.98 64.26 3.82 4.57 9.36 10.3
10:13 2 23.2 51 69,456 0 0 1.92 8.46 63.83 3.45 4.57 10.91 12
10:11 2 23.1 51 69,549 0 0 1.88 5.12 60.81 2.84 2.86 8.66 9.53
10:09 2 23.1 52 69,585 0 0 1.79 9.1 64.03 4.29 4.57 10.12 11.13
10:07 2 23 52 69,599 0 0 1.77 7.67 63.3 3.34 4.57 10.85 11.93
10:06 2 23 51 69,595 0 0 1.6 7.64 62.22 2.97 4.57 11.66 12.83
10:04 2 23 51 69,622 0 0 1.8 5.45 59.62 2.67 6.29 13.19 13.38
10:03 2 23 52 69,661 0 0 1.68 8.21 62.86 3.65 2.86 8.59 9.45
10:02 2 23 51 69,707 0 0 1.7 9.1 62.87 3.3 4.57 10.13 11.15
10:01 2 23 52 69,738 0 0 1.87 5.42 63.06 2.79 3.71 9.35 10.28
10:00 2 23 51 69,816 0 0 1.89 9.11 65.04 3.37 3.71 10.14 11.16
09:59 2 23 51 69,887 0 0 1.91 3.68 53.49 1.6 4.57 10.14 11.16
09:58 2 23 52 70,044 0.02 0 2.02 6 61.01 3 3.71 9.35 10.29
09:57 2 23.1 52 70,245 0.07 0 2.09 5.28 54.69 2.36 3.71 9.29 10.22
09:56 2 23.1 52 70,457 0.07 0 2.08 8.14 57.03 3.26 4.57 10.81 11.89
09:55 2 23 53 70,677 0.11 0 2.04 8.63 53.05 2.31 3.71 8.5 9.35
09:54 2 23 53 70,938 0.11 0 2.04 8.43 54.94 3.46 3.71 9.26 10.19
09:53 2 23 53 71,224 0.09 0 1.95 10.63 54.38 3.54 4.57 10.02 11.02